Terminal Aerodrome Forecast
Issued by NWS

Current Version | Previous Version | Text Only | Print | Product List | Glossary Off
Versions: 1 2 3 4 5 6 7 8 9 10 11 12 13 14 15 16 17 18

000
FTUS41 KRNK 222336
TAFLWB
TAF
KLWB 222336Z 2300/2324 20005KT P6SM VCSH OVC050
     FM230400 00000KT P6SM OVC025
      TEMPO 2305/2308 4SM -RADZ OVC007
     FM231100 VRB03KT 3SM BR OVC020
     FM231400 15004KT P6SM BKN025=

USA.gov is the U.S. government's official web portal to all federal, state and local government web resources and services.